Time;durP1;ratioP1;P1;durP2;ratioP2;P2;SDS_P1;SDS_P2;PMS_P1;PMS_P2;Temp;Humidity;BMP_temperature;BMP_pressure;BME280_temperature;BME280_humidity;BME280_pressure;Samples;Min_cycle;Max_cycle;Signal;HPM_P1;HPM_P2
2022/11/17 00:01:20;;;;;;;14.13;9.33;;;6.80;99.90;;;;;;5014998;28;20177;-86
2022/11/17 00:03:47;;;;;;;12.33;8.20;;;6.90;99.90;;;;;;5014925;28;20258;-86
2022/11/17 00:06:13;;;;;;;11.87;7.97;;;6.80;99.90;;;;;;5010446;28;20588;-86
2022/11/17 00:08:38;;;;;;;13.13;8.07;;;6.80;99.90;;;;;;5010919;28;20175;-86
2022/11/17 00:11:05;;;;;;;12.20;8.53;;;6.70;99.90;;;;;;5011703;28;20178;-86
2022/11/17 00:16:16;;;;;;;12.93;8.10;;;6.70;99.90;;;;;;5047762;28;20192;-86
2022/11/17 00:21:28;;;;;;;10.60;7.23;;;6.70;99.90;;;;;;5050713;28;20259;-86
2022/11/17 00:23:55;;;;;;;12.43;7.87;;;6.60;99.90;;;;;;5034894;28;20218;-86
2022/11/17 00:26:24;;;;;;;11.43;7.60;;;6.70;99.90;;;;;;5036298;28;20178;-86
2022/11/17 00:28:58;;;;;;;12.43;7.60;;;6.70;99.90;;;;;;5034828;28;20182;-86
2022/11/17 00:34:21;;;;;;;10.87;7.53;;;6.50;99.90;;;;;;5051708;28;20209;-86
2022/11/17 00:36:49;;;;;;;9.17;7.37;;;6.50;99.90;;;;;;5051291;28;20170;-86
2022/11/17 00:39:16;;;;;;;12.40;8.07;;;6.50;99.90;;;;;;5034652;28;20639;-86
2022/11/17 00:41:42;;;;;;;10.73;8.00;;;6.60;99.90;;;;;;5051306;28;20188;-86
2022/11/17 00:44:09;;;;;;;11.10;8.10;;;6.60;99.90;;;;;;5050921;28;20219;-86
2022/11/17 00:46:36;;;;;;;15.57;10.10;;;6.60;99.90;;;;;;5034453;28;20206;-86
2022/11/17 00:49:04;;;;;;;14.30;10.27;;;6.60;99.90;;;;;;5017262;28;20188;-86
2022/11/17 00:51:30;;;;;;;11.60;9.30;;;6.60;99.90;;;;;;5032957;28;20228;-86
2022/11/17 00:53:56;;;;;;;10.57;8.30;;;6.60;99.90;;;;;;5018262;28;20653;-86
2022/11/17 00:56:22;;;;;;;14.00;8.83;;;6.60;99.90;;;;;;5034488;28;20185;-86
2022/11/17 00:58:48;;;;;;;12.33;9.10;;;6.70;99.90;;;;;;5017494;28;20189;-86
2022/11/17 01:01:14;;;;;;;11.33;8.37;;;6.60;99.90;;;;;;5018003;28;20180;-87
2022/11/17 01:03:40;;;;;;;13.10;9.20;;;6.60;99.90;;;;;;5017624;28;20209;-86
2022/11/17 01:06:12;;;;;;;9.40;7.80;;;6.60;99.90;;;;;;5017706;28;20217;-86
2022/11/17 01:08:38;;;;;;;10.60;8.40;;;6.70;99.90;;;;;;5034398;28;20185;-86
2022/11/17 01:11:16;;;;;;;10.40;8.23;;;6.70;99.90;;;;;;5033526;28;20215;-86
2022/11/17 01:13:44;;;;;;;10.97;8.00;;;6.70;99.90;;;;;;5017603;28;20174;-86
2022/11/17 01:16:12;;;;;;;11.77;9.17;;;6.70;99.90;;;;;;5017366;28;20264;-86
2022/11/17 01:18:39;;;;;;;13.30;8.27;;;6.70;99.90;;;;;;5017212;28;20220;-86
2022/11/17 01:21:14;;;;;;;10.27;7.93;;;6.70;99.90;;;;;;5034072;28;20260;-86
2022/11/17 01:23:41;;;;;;;11.70;8.60;;;6.80;99.90;;;;;;5017419;28;20220;-86
2022/11/17 01:26:10;;;;;;;10.17;7.77;;;6.70;99.90;;;;;;5017650;28;20251;-86
2022/11/17 01:28:37;;;;;;;12.07;8.97;;;6.80;99.90;;;;;;5033632;28;20217;-86
2022/11/17 01:31:10;;;;;;;10.10;7.90;;;6.80;99.90;;;;;;5017703;28;20181;-86
2022/11/17 01:33:36;;;;;;;12.57;9.17;;;6.80;99.90;;;;;;5016142;28;20209;-86
2022/11/17 01:36:12;;;;;;;11.40;8.50;;;6.80;99.90;;;;;;5017414;28;20214;-86
2022/11/17 01:38:38;;;;;;;10.23;9.10;;;6.90;99.90;;;;;;5033613;28;20204;-86
2022/11/17 01:41:06;;;;;;;14.20;9.27;;;6.90;99.90;;;;;;5033381;28;20186;-86
2022/11/17 01:43:56;;;;;;;13.53;8.93;;;6.90;99.90;;;;;;5032900;28;20205;-86
2022/11/17 01:46:37;;;;;;;10.63;6.87;;;7.00;99.90;;;;;;5017006;28;20242;-86
2022/11/17 01:49:14;;;;;;;10.37;7.60;;;6.90;99.90;;;;;;5016898;28;20183;-86
2022/11/17 01:51:45;;;;;;;12.50;7.40;;;6.90;99.90;;;;;;5016886;28;20177;-86
2022/11/17 01:54:13;;;;;;;10.13;7.33;;;7.00;99.90;;;;;;5016618;28;20209;-86
2022/11/17 01:56:44;;;;;;;10.87;6.80;;;6.90;99.90;;;;;;5016759;28;20188;-86
2022/11/17 01:59:53;;;;;;;10.27;7.50;;;6.90;99.90;;;;;;5016571;28;20182;-86
2022/11/17 02:02:19;;;;;;;12.60;7.10;;;6.80;99.90;;;;;;5016693;28;20200;-86
2022/11/17 02:04:55;;;;;;;10.30;6.63;;;6.80;99.90;;;;;;5009348;28;20226;-86
2022/11/17 02:07:25;;;;;;;10.23;7.30;;;6.80;99.90;;;;;;5013469;28;20202;-86
2022/11/17 02:09:52;;;;;;;10.57;6.97;;;6.80;99.90;;;;;;4996396;28;20182;-86
2022/11/17 02:12:19;;;;;;;12.43;7.03;;;6.70;99.90;;;;;;5016487;28;20237;-86
2022/11/17 02:14:47;;;;;;;8.43;6.70;;;6.70;99.90;;;;;;5016341;28;20228;-86
2022/11/17 02:17:13;;;;;;;11.57;7.97;;;6.60;99.90;;;;;;5016025;28;20219;-86
2022/11/17 02:19:41;;;;;;;10.77;7.00;;;6.60;99.90;;;;;;5016330;28;20197;-86
2022/11/17 02:22:40;;;;;;;10.20;6.80;;;6.60;99.90;;;;;;5016238;28;20235;-86
2022/11/17 02:25:30;;;;;;;9.90;6.60;;;6.50;99.90;;;;;;5032574;28;20214;-86
2022/11/17 02:28:18;;;;;;;12.07;7.20;;;6.30;99.90;;;;;;5015933;28;20252;-86
2022/11/17 02:30:45;;;;;;;9.27;7.13;;;6.20;99.90;;;;;;5016701;28;20192;-86
2022/11/17 02:33:36;;;;;;;10.33;7.53;;;6.20;99.90;;;;;;5016136;28;20186;-86
2022/11/17 02:36:20;;;;;;;12.47;7.63;;;6.20;99.90;;;;;;5032649;28;20204;-86
2022/11/17 02:38:54;;;;;;;10.53;7.47;;;6.10;99.90;;;;;;5016002;28;20252;-85
2022/11/17 02:41:37;;;;;;;12.57;7.60;;;6.10;99.90;;;;;;5016741;28;20168;-86
2022/11/17 02:44:20;;;;;;;11.27;7.63;;;5.90;99.90;;;;;;5016418;28;20196;-86
2022/11/17 02:46:52;;;;;;;10.03;7.30;;;5.90;99.90;;;;;;5017784;28;20167;-86
2022/11/17 02:49:20;;;;;;;11.20;7.80;;;5.90;99.90;;;;;;5033536;28;20164;-86
2022/11/17 02:51:52;;;;;;;11.83;7.97;;;6.00;99.90;;;;;;5015363;28;20188;-86
2022/11/17 02:54:20;;;;;;;10.47;7.63;;;6.10;99.90;;;;;;5015993;28;20287;-86
2022/11/17 02:56:46;;;;;;;10.23;7.30;;;6.10;99.90;;;;;;5031932;28;20191;-85
2022/11/17 02:59:15;;;;;;;12.40;7.70;;;6.20;99.90;;;;;;5015974;28;20184;-86
2022/11/17 03:02:05;;;;;;;10.27;7.63;;;6.20;99.90;;;;;;5033252;28;20187;-86
2022/11/17 03:04:42;;;;;;;9.97;8.10;;;6.30;99.90;;;;;;5015464;28;20218;-86
2022/11/17 03:07:21;;;;;;;9.37;7.30;;;6.40;99.90;;;;;;5031784;28;20170;-86
2022/11/17 03:10:08;;;;;;;10.70;7.57;;;6.50;99.90;;;;;;5015370;28;20176;-86
2022/11/17 03:13:09;;;;;;;14.27;7.30;;;6.50;99.90;;;;;;5015386;28;20200;-86
2022/11/17 03:16:06;;;;;;;10.17;7.20;;;6.60;99.90;;;;;;5015113;28;20254;-86
2022/11/17 03:18:50;;;;;;;11.77;7.50;;;6.70;99.90;;;;;;5015557;28;20223;-86
2022/11/17 03:21:30;;;;;;;11.67;7.80;;;6.70;99.90;;;;;;5015305;28;20175;-86
2022/11/17 03:24:04;;;;;;;8.23;6.90;;;6.80;99.90;;;;;;5015125;28;20212;-87
2022/11/17 03:26:34;;;;;;;8.67;6.83;;;6.80;99.90;;;;;;5014977;28;20247;-86
2022/11/17 03:29:04;;;;;;;9.97;6.83;;;6.80;99.90;;;;;;5014733;28;20253;-86
2022/11/17 03:31:32;;;;;;;11.27;7.40;;;6.80;99.90;;;;;;5015164;28;20245;-86
2022/11/17 03:34:00;;;;;;;9.13;6.53;;;6.80;99.90;;;;;;5015056;28;20197;-86
2022/11/17 03:36:34;;;;;;;9.67;6.97;;;6.80;99.90;;;;;;5011703;28;20182;-86
2022/11/17 03:39:12;;;;;;;11.17;7.53;;;6.80;99.90;;;;;;5011763;28;20182;-86
2022/11/17 03:41:43;;;;;;;8.53;6.93;;;6.70;99.90;;;;;;5011556;28;20181;-86
2022/11/17 03:44:12;;;;;;;12.40;7.53;;;6.70;99.90;;;;;;5011562;28;20318;-86
2022/11/17 03:46:41;;;;;;;12.60;7.77;;;6.60;99.90;;;;;;5011854;28;20186;-86
2022/11/17 03:49:47;;;;;;;10.50;8.33;;;6.60;99.90;;;;;;5011947;28;20192;-86
2022/11/17 03:52:13;;;;;;;7.87;6.90;;;6.50;99.90;;;;;;5020796;28;20185;-86
2022/11/17 03:54:40;;;;;;;9.20;7.33;;;6.50;99.90;;;;;;5031414;28;20206;-86
2022/11/17 03:57:14;;;;;;;14.07;7.90;;;6.60;99.90;;;;;;5019719;28;20184;-86
2022/11/17 04:00:00;;;;;;;10.93;7.50;;;6.60;99.90;;;;;;5036008;28;20177;-86
2022/11/17 04:02:27;;;;;;;9.07;7.67;;;6.60;99.90;;;;;;5018959;28;20186;-86
2022/11/17 04:05:05;;;;;;;9.47;7.87;;;6.60;99.90;;;;;;5018338;28;20216;-86
2022/11/17 04:07:31;;;;;;;14.50;9.53;;;6.70;99.90;;;;;;5018560;28;20180;-86
2022/11/17 04:09:57;;;;;;;10.93;8.27;;;6.70;99.90;;;;;;5018964;28;20182;-87
2022/11/17 04:17:54;;;;;;;9.80;7.37;;;6.80;99.90;;;;;;5034958;28;20189;-86
2022/11/17 04:20:20;;;;;;;11.93;7.67;;;6.80;99.90;;;;;;5018723;28;20200;-86
2022/11/17 04:23:05;;;;;;;11.07;7.43;;;6.80;99.90;;;;;;5018807;28;20181;-86
2022/11/17 04:28:37;;;;;;;10.83;7.17;;;6.70;99.90;;;;;;5033856;28;20725;-86
2022/11/17 04:31:04;;;;;;;10.17;7.57;;;6.70;99.90;;;;;;5018332;28;20173;-86
2022/11/17 04:33:30;;;;;;;13.50;8.27;;;6.70;99.90;;;;;;5018201;28;20181;-86
2022/11/17 04:35:56;;;;;;;10.13;7.50;;;6.70;99.90;;;;;;5018186;28;20243;-86
2022/11/17 04:38:22;;;;;;;11.73;7.63;;;6.70;99.90;;;;;;5018103;28;20217;-87
2022/11/17 04:43:32;;;;;;;10.00;7.23;;;6.80;99.90;;;;;;5055009;28;20212;-88
2022/11/17 04:45:59;;;;;;;10.73;7.93;;;6.90;99.90;;;;;;5038088;28;20303;-88
2022/11/17 04:48:26;;;;;;;9.60;7.10;;;6.80;99.90;;;;;;5038303;28;20187;-88
2022/11/17 04:50:56;;;;;;;9.73;7.57;;;6.80;99.90;;;;;;5038385;28;20189;-88
2022/11/17 04:53:23;;;;;;;11.33;7.73;;;6.80;99.90;;;;;;5054798;28;20232;-87
2022/11/17 04:55:50;;;;;;;10.07;7.47;;;6.80;99.90;;;;;;5054792;28;20239;-88
2022/11/17 04:58:16;;;;;;;11.73;7.77;;;6.80;99.90;;;;;;5037557;28;20222;-87
2022/11/17 05:00:42;;;;;;;10.33;7.43;;;6.80;99.90;;;;;;5019940;28;20186;-88
2022/11/17 05:03:08;;;;;;;9.03;7.70;;;6.90;99.90;;;;;;5034418;28;20253;-87
2022/11/17 05:05:33;;;;;;;11.10;7.40;;;6.90;99.90;;;;;;5017327;28;20213;-88
2022/11/17 05:07:59;;;;;;;10.67;8.13;;;6.90;99.90;;;;;;5033952;28;20204;-88
2022/11/17 05:13:26;;;;;;;8.80;7.23;;;6.90;99.90;;;;;;5050767;28;20189;-88
2022/11/17 05:18:42;;;;;;;11.03;7.40;;;6.90;99.90;;;;;;5050515;28;20183;-88
2022/11/17 05:21:09;;;;;;;11.93;8.00;;;6.90;99.90;;;;;;5034207;28;20186;-88
2022/11/17 05:23:54;;;;;;;12.27;7.97;;;6.90;99.90;;;;;;5033850;28;20224;-87
2022/11/17 05:26:23;;;;;;;10.07;7.20;;;6.80;99.90;;;;;;5034323;28;20190;-88
2022/11/17 05:28:49;;;;;;;7.53;6.73;;;6.70;99.90;;;;;;5034234;28;20184;-88
2022/11/17 05:31:16;;;;;;;8.17;7.00;;;6.80;99.90;;;;;;5053014;28;20178;-88
2022/11/17 05:33:42;;;;;;;8.73;6.67;;;6.80;99.90;;;;;;5000410;28;20189;-88
2022/11/17 05:36:09;;;;;;;8.93;7.17;;;6.80;99.90;;;;;;5014669;28;20303;-88
2022/11/17 05:38:35;;;;;;;9.93;6.50;;;6.90;99.90;;;;;;5006455;28;20186;-88
2022/11/17 05:41:01;;;;;;;6.90;6.10;;;6.90;99.90;;;;;;5018822;28;20180;-88
2022/11/17 05:43:27;;;;;;;8.90;6.83;;;6.80;99.90;;;;;;5019503;28;20223;-88
2022/11/17 05:45:53;;;;;;;7.40;6.57;;;6.80;99.90;;;;;;5019361;28;20197;-88
2022/11/17 05:48:19;;;;;;;10.43;7.17;;;6.90;99.90;;;;;;5033593;28;20181;-88
2022/11/17 05:50:45;;;;;;;8.47;6.93;;;6.80;99.90;;;;;;5017332;28;20236;-88
2022/11/17 05:53:12;;;;;;;8.27;6.50;;;6.80;99.90;;;;;;5017411;28;20173;-88
2022/11/17 05:55:38;;;;;;;9.47;6.20;;;6.80;99.90;;;;;;5016866;28;20292;-88
2022/11/17 05:58:10;;;;;;;7.90;6.30;;;6.70;99.90;;;;;;5016508;28;20186;-88
2022/11/17 06:00:38;;;;;;;6.90;4.90;;;6.70;99.90;;;;;;5033439;28;20173;-88
2022/11/17 06:03:11;;;;;;;8.03;6.37;;;6.80;99.90;;;;;;5016630;28;20177;-88
2022/11/17 06:05:37;;;;;;;10.57;6.90;;;6.70;99.90;;;;;;5016684;28;20592;-88
2022/11/17 06:08:03;;;;;;;7.50;6.30;;;6.70;99.90;;;;;;5033194;28;20235;-88
2022/11/17 06:10:29;;;;;;;8.83;5.90;;;6.70;99.90;;;;;;5032928;28;20246;-88
2022/11/17 06:12:55;;;;;;;9.53;6.70;;;6.70;99.90;;;;;;5016758;28;20272;-88
2022/11/17 06:15:21;;;;;;;8.10;6.43;;;6.70;99.90;;;;;;5049191;28;20708;-87
2022/11/17 06:17:55;;;;;;;8.10;6.73;;;6.80;99.90;;;;;;5032527;28;20181;-88
2022/11/17 06:20:24;;;;;;;8.93;6.37;;;6.80;99.90;;;;;;5033248;28;20181;-88
2022/11/17 06:22:50;;;;;;;9.37;6.23;;;6.90;99.90;;;;;;5032999;28;20222;-87
2022/11/17 06:25:19;;;;;;;9.53;6.23;;;6.90;99.90;;;;;;5032693;28;20214;-88
2022/11/17 06:27:46;;;;;;;8.07;5.97;;;6.90;99.90;;;;;;5032991;28;20189;-88
2022/11/17 06:30:12;;;;;;;5.97;5.37;;;6.90;99.90;;;;;;5032804;28;20181;-87
2022/11/17 06:32:42;;;;;;;8.73;6.20;;;6.90;99.90;;;;;;5032861;28;20182;-88
2022/11/17 06:35:10;;;;;;;7.37;6.20;;;7.00;99.90;;;;;;5033199;28;20266;-87
2022/11/17 06:37:36;;;;;;;19.10;15.17;;;6.90;99.90;;;;;;5032368;28;20208;-87
2022/11/17 06:40:02;;;;;;;7.83;6.73;;;6.90;99.90;;;;;;5033004;28;20212;-86
2022/11/17 06:45:12;;;;;;;7.07;5.03;;;6.80;99.90;;;;;;5049903;28;20288;-86
2022/11/17 06:47:39;;;;;;;8.10;5.10;;;6.80;99.90;;;;;;5032885;28;20178;-86
2022/11/17 06:50:05;;;;;;;5.90;4.63;;;6.80;99.90;;;;;;5032456;28;20178;-87
2022/11/17 06:52:31;;;;;;;5.77;4.83;;;6.90;99.90;;;;;;5032439;28;20174;-86
2022/11/17 06:55:00;;;;;;;5.97;4.37;;;6.90;99.90;;;;;;5032473;28;20262;-87
2022/11/17 06:57:26;;;;;;;4.03;2.80;;;6.90;99.90;;;;;;5031764;28;20197;-86
2022/11/17 06:59:53;;;;;;;3.40;2.20;;;7.00;99.90;;;;;;5032306;28;20221;-87
2022/11/17 07:02:20;;;;;;;4.80;3.10;;;7.10;99.90;;;;;;5031944;28;20185;-87
2022/11/17 07:04:49;;;;;;;4.27;3.50;;;7.20;99.90;;;;;;5020944;28;20250;-87
2022/11/17 07:07:17;;;;;;;5.17;2.63;;;7.40;99.90;;;;;;5013513;28;20186;-86
2022/11/17 07:09:43;;;;;;;4.33;2.30;;;7.50;99.90;;;;;;4996200;28;20190;-87
2022/11/17 07:12:09;;;;;;;4.30;2.10;;;7.70;99.90;;;;;;4996989;28;20189;-87
2022/11/17 07:14:34;;;;;;;5.70;2.00;;;7.90;99.90;;;;;;4995986;28;20210;-86
2022/11/17 07:17:01;;;;;;;4.40;1.70;;;8.20;99.90;;;;;;5011916;28;20191;-86
2022/11/17 07:19:27;;;;;;;2.83;1.47;;;8.40;99.90;;;;;;5012386;28;20180;-87
2022/11/17 07:21:53;;;;;;;4.70;1.80;;;8.60;99.90;;;;;;4995814;28;20192;-87
2022/11/17 07:24:19;;;;;;;2.40;1.70;;;8.80;99.90;;;;;;5011667;28;20215;-87
2022/11/17 07:26:45;;;;;;;3.27;1.60;;;8.90;99.90;;;;;;4995681;28;20183;-88
2022/11/17 07:29:12;;;;;;;3.90;2.40;;;9.10;99.90;;;;;;5011604;28;20183;-87
2022/11/17 07:31:38;;;;;;;3.83;1.73;;;9.20;99.90;;;;;;4995457;28;20221;-88
2022/11/17 07:34:05;;;;;;;3.50;2.17;;;9.30;99.90;;;;;;5007228;28;20209;-87
2022/11/17 07:36:32;;;;;;;2.93;1.50;;;9.30;99.90;;;;;;5015525;28;20205;-87
2022/11/17 07:38:58;;;;;;;3.43;1.00;;;9.40;99.90;;;;;;5015106;28;20206;-87
2022/11/17 07:41:24;;;;;;;2.07;1.20;;;9.60;99.90;;;;;;5031721;28;20190;-87
2022/11/17 07:43:49;;;;;;;4.43;1.00;;;9.60;99.90;;;;;;5031275;28;20205;-87
2022/11/17 07:46:15;;;;;;;3.13;1.23;;;9.80;99.90;;;;;;5031956;28;20177;-87
2022/11/17 07:48:43;;;;;;;1.93;0.87;;;9.80;99.90;;;;;;5030926;28;20182;-87
2022/11/17 07:51:09;;;;;;;2.80;1.07;;;9.80;99.90;;;;;;5014627;28;20266;-86
2022/11/17 07:53:35;;;;;;;3.00;0.93;;;9.90;99.90;;;;;;5012279;28;20250;-87
2022/11/17 07:56:09;;;;;;;4.53;1.47;;;9.90;99.90;;;;;;5028254;28;20641;-86
2022/11/17 07:58:36;;;;;;;4.70;1.07;;;9.90;99.90;;;;;;5012984;28;20273;-87
2022/11/17 08:01:06;;;;;;;4.23;1.17;;;10.00;99.90;;;;;;5031369;28;20178;-87
2022/11/17 08:03:32;;;;;;;1.40;0.90;;;10.00;99.90;;;;;;5031391;28;20186;-86
2022/11/17 08:06:03;;;;;;;5.37;1.03;;;10.00;99.90;;;;;;5031264;28;20190;-86
2022/11/17 08:08:29;;;;;;;2.13;1.10;;;10.10;99.90;;;;;;5014645;28;20281;-86
2022/11/17 08:10:55;;;;;;;3.00;0.90;;;10.20;99.90;;;;;;5014940;28;20178;-86
2022/11/17 08:13:21;;;;;;;2.60;0.93;;;10.20;99.90;;;;;;5014859;28;20206;-87
2022/11/17 08:15:47;;;;;;;3.17;1.07;;;10.20;99.90;;;;;;5031048;28;20221;-87
2022/11/17 08:18:13;;;;;;;2.73;1.00;;;10.30;99.90;;;;;;5031170;28;20175;-87
2022/11/17 08:20:39;;;;;;;2.73;1.33;;;10.30;99.90;;;;;;5014799;28;20179;-86
2022/11/17 08:23:04;;;;;;;2.57;1.20;;;10.30;99.90;;;;;;5014458;28;20927;-87
2022/11/17 08:25:30;;;;;;;3.10;1.20;;;10.30;99.90;;;;;;5030608;28;20214;-86
2022/11/17 08:27:57;;;;;;;3.63;1.30;;;10.40;99.90;;;;;;5031003;28;20170;-86
2022/11/17 08:30:25;;;;;;;1.87;1.20;;;10.40;99.90;;;;;;5014683;28;20185;-86
2022/11/17 08:32:52;;;;;;;3.30;0.90;;;10.40;99.90;;;;;;5014984;28;20190;-86
2022/11/17 08:35:21;;;;;;;2.60;1.10;;;10.30;99.90;;;;;;5031441;28;20265;-86
2022/11/17 08:37:46;;;;;;;4.27;1.50;;;10.40;99.90;;;;;;5030931;28;20187;-86
2022/11/17 08:40:13;;;;;;;1.67;0.87;;;10.40;99.90;;;;;;5047846;28;20190;-87
2022/11/17 08:42:39;;;;;;;1.97;0.90;;;10.50;99.90;;;;;;5034432;28;20179;-86
2022/11/17 08:45:06;;;;;;;2.20;0.80;;;10.50;99.90;;;;;;5034469;28;20218;-87
2022/11/17 08:47:33;;;;;;;3.27;0.60;;;10.60;99.90;;;;;;5034335;28;20177;-86
2022/11/17 08:49:58;;;;;;;2.40;0.87;;;10.60;99.90;;;;;;5034612;28;20376;-86
2022/11/17 08:52:27;;;;;;;1.37;0.53;;;10.60;99.90;;;;;;5034874;28;20265;-86
2022/11/17 08:54:53;;;;;;;2.27;0.90;;;10.70;99.90;;;;;;5034304;28;20221;-86
2022/11/17 08:57:20;;;;;;;2.00;0.60;;;10.70;99.90;;;;;;5033920;28;20188;-86
2022/11/17 08:59:47;;;;;;;2.17;0.83;;;10.70;99.90;;;;;;5033802;28;20184;-86
2022/11/17 09:02:13;;;;;;;0.80;0.70;;;10.70;99.90;;;;;;5035632;28;20178;-86
2022/11/17 09:04:39;;;;;;;3.57;0.80;;;10.70;99.90;;;;;;5034098;28;20213;-86
2022/11/17 09:07:05;;;;;;;1.60;0.60;;;10.70;99.90;;;;;;5034067;28;20277;-86
2022/11/17 09:09:32;;;;;;;1.33;0.80;;;10.70;99.90;;;;;;5034288;28;20179;-86
2022/11/17 09:12:01;;;;;;;1.60;0.60;;;10.70;99.90;;;;;;5034210;28;20210;-87
2022/11/17 09:14:27;;;;;;;4.00;0.97;;;10.70;99.90;;;;;;5034264;28;20210;-86
2022/11/17 09:16:52;;;;;;;1.90;0.90;;;10.70;99.90;;;;;;5035128;28;20259;-86
2022/11/17 09:19:19;;;;;;;3.23;0.90;;;10.70;99.90;;;;;;5034277;28;20179;-87
2022/11/17 09:21:45;;;;;;;1.30;0.73;;;10.70;99.90;;;;;;5034037;28;20178;-86
2022/11/17 09:24:11;;;;;;;1.13;0.70;;;10.80;99.90;;;;;;5050293;28;20210;-86
2022/11/17 09:26:40;;;;;;;3.77;1.20;;;10.80;99.90;;;;;;5050556;28;20225;-86
2022/11/17 09:29:06;;;;;;;2.53;0.90;;;10.80;99.90;;;;;;5033783;28;20190;-86
2022/11/17 09:31:33;;;;;;;2.27;1.00;;;10.80;99.90;;;;;;5035587;28;20217;-87
2022/11/17 09:33:59;;;;;;;1.77;1.00;;;10.90;99.90;;;;;;5017079;28;20179;-86
2022/11/17 09:36:27;;;;;;;3.20;1.40;;;10.80;99.90;;;;;;5033841;28;20182;-86
2022/11/17 09:38:53;;;;;;;5.97;2.50;;;10.80;99.90;;;;;;5033665;28;20191;-86
2022/11/17 09:41:40;;;;;;;4.50;1.80;;;10.80;99.90;;;;;;5045962;28;20192;-86
2022/11/17 09:44:31;;;;;;;4.53;1.70;;;10.80;99.90;;;;;;5016900;28;20305;-86
2022/11/17 09:47:09;;;;;;;3.47;1.10;;;10.80;99.90;;;;;;5016902;28;20187;-86
2022/11/17 09:49:58;;;;;;;5.73;1.57;;;10.80;99.90;;;;;;5033439;28;20263;-86
2022/11/17 09:52:31;;;;;;;3.50;0.80;;;10.80;99.90;;;;;;5032852;28;20183;-86
2022/11/17 09:55:29;;;;;;;3.47;0.70;;;10.80;99.90;;;;;;5015773;28;20210;-86
2022/11/17 09:58:34;;;;;;;3.70;0.90;;;10.90;99.90;;;;;;5016508;28;20187;-87
2022/11/17 10:01:19;;;;;;;6.30;1.20;;;10.90;99.90;;;;;;5033443;28;20192;-87
2022/11/17 10:03:48;;;;;;;3.97;1.43;;;11.00;99.90;;;;;;5016967;28;20187;-87
2022/11/17 10:06:27;;;;;;;4.80;1.23;;;11.10;99.90;;;;;;5017364;28;20187;-87
2022/11/17 10:09:18;;;;;;;2.60;0.80;;;11.20;99.90;;;;;;5025296;28;20226;-85
2022/11/17 10:11:45;;;;;;;2.73;0.70;;;11.20;99.90;;;;;;5047918;28;20210;-86
2022/11/17 10:14:14;;;;;;;3.03;0.90;;;11.30;99.90;;;;;;5016879;28;20302;-85
2022/11/17 10:16:44;;;;;;;2.53;1.07;;;11.30;99.90;;;;;;5016634;28;20225;-86
2022/11/17 10:19:17;;;;;;;4.33;1.50;;;11.40;99.90;;;;;;5016730;28;20262;-87
2022/11/17 10:21:46;;;;;;;4.03;1.10;;;11.60;99.90;;;;;;5016692;28;20177;-86
2022/11/17 10:24:31;;;;;;;4.70;1.50;;;11.70;99.90;;;;;;5032748;28;20216;-87
2022/11/17 10:26:57;;;;;;;3.23;1.40;;;11.80;99.90;;;;;;5016395;28;20207;-86
2022/11/17 10:29:23;;;;;;;2.37;1.17;;;11.80;99.90;;;;;;5032181;28;20218;-87
2022/11/17 10:31:49;;;;;;;6.63;1.13;;;11.90;99.90;;;;;;5016453;28;20181;-87
2022/11/17 10:34:38;;;;;;;4.10;1.10;;;12.00;99.90;;;;;;5016362;28;20204;-86
2022/11/17 10:37:29;;;;;;;5.40;1.60;;;12.00;99.90;;;;;;5012284;28;20222;-86
2022/11/17 10:40:18;;;;;;;3.03;1.00;;;12.00;99.90;;;;;;5016382;28;20172;-86
2022/11/17 10:43:10;;;;;;;3.70;0.80;;;12.00;99.90;;;;;;5032442;28;20192;-87
2022/11/17 10:45:48;;;;;;;7.13;1.20;;;12.00;99.90;;;;;;5013231;28;20733;-86
2022/11/17 10:48:35;;;;;;;5.20;1.27;;;12.20;99.90;;;;;;5015702;28;20640;-87
2022/11/17 10:51:20;;;;;;;5.73;1.37;;;12.20;99.90;;;;;;5015827;28;20189;-86
2022/11/17 10:54:05;;;;;;;6.00;1.33;;;12.20;99.90;;;;;;5032278;28;20204;-86
2022/11/17 10:56:38;;;;;;;4.70;1.10;;;12.20;99.90;;;;;;5015624;28;20182;-86
2022/11/17 10:59:12;;;;;;;5.53;1.67;;;12.30;99.90;;;;;;5015755;28;20178;-87
2022/11/17 11:01:41;;;;;;;4.87;1.70;;;12.40;99.90;;;;;;5016098;28;20216;-86
2022/11/17 11:04:38;;;;;;;6.07;1.57;;;12.50;99.90;;;;;;5015239;28;20210;-87
2022/11/17 11:07:12;;;;;;;4.00;1.30;;;12.60;99.90;;;;;;5026704;28;20662;-87
2022/11/17 11:10:04;;;;;;;6.30;1.10;;;12.70;99.90;;;;;;5015684;28;20174;-87
2022/11/17 11:12:49;;;;;;;4.97;1.67;;;12.80;99.90;;;;;;5015946;28;20175;-87
2022/11/17 11:15:22;;;;;;;4.27;1.23;;;12.80;99.90;;;;;;5016004;28;20346;-86
2022/11/17 11:17:50;;;;;;;7.03;1.70;;;12.80;99.90;;;;;;5031758;28;20257;-87
2022/11/17 11:20:23;;;;;;;6.20;1.80;;;12.80;99.90;;;;;;5015964;28;20190;-87
2022/11/17 11:23:19;;;;;;;5.37;1.40;;;12.80;99.90;;;;;;5032051;28;20170;-87
2022/11/17 11:25:50;;;;;;;3.90;1.60;;;12.80;99.90;;;;;;5015620;28;20283;-87
2022/11/17 11:29:13;;;;;;;3.97;1.20;;;12.90;99.90;;;;;;5015234;28;20182;-87
2022/11/17 11:31:56;;;;;;;7.83;2.03;;;13.00;99.90;;;;;;4995228;28;20179;-87
2022/11/17 11:34:37;;;;;;;5.77;2.00;;;13.10;99.90;;;;;;4995015;28;20708;-87
2022/11/17 11:37:08;;;;;;;6.43;1.87;;;13.20;99.90;;;;;;5024816;28;20195;-85
2022/11/17 11:40:10;;;;;;;8.23;1.67;;;13.30;99.90;;;;;;5012478;28;20339;-88
2022/11/17 11:42:51;;;;;;;6.67;1.90;;;13.50;99.90;;;;;;5019129;28;20181;-87
2022/11/17 11:45:47;;;;;;;9.13;1.83;;;13.60;99.90;;;;;;5015450;28;20213;-87
2022/11/17 11:48:27;;;;;;;8.23;1.83;;;13.60;99.90;;;;;;5015330;28;20246;-87
2022/11/17 11:50:57;;;;;;;5.07;1.50;;;13.50;99.90;;;;;;5015732;28;20175;-87
2022/11/17 11:53:57;;;;;;;9.07;2.10;;;13.50;99.90;;;;;;5015783;28;20170;-87
2022/11/17 11:56:33;;;;;;;8.20;1.97;;;13.30;99.90;;;;;;5015398;28;20175;-87
2022/11/17 11:59:19;;;;;;;7.07;1.60;;;13.30;99.90;;;;;;5015151;28;20265;-87
2022/11/17 12:02:01;;;;;;;8.33;1.47;;;13.30;99.90;;;;;;5032050;28;20191;-87
2022/11/17 12:04:35;;;;;;;6.33;1.70;;;13.40;99.90;;;;;;5015119;28;20275;-87
2022/11/17 12:07:30;;;;;;;3.70;1.20;;;13.40;99.90;;;;;;5031494;28;20667;-87
2022/11/17 12:10:12;;;;;;;4.43;1.50;;;13.50;99.90;;;;;;5012184;28;20235;-87
2022/11/17 12:12:39;;;;;;;8.30;1.70;;;13.40;99.90;;;;;;5029090;28;20175;-87
2022/11/17 12:15:18;;;;;;;8.53;1.87;;;13.30;99.90;;;;;;5015225;28;20692;-87
2022/11/17 12:18:11;;;;;;;7.53;1.93;;;13.40;99.90;;;;;;5018220;28;20178;-87
2022/11/17 12:21:10;;;;;;;7.50;1.87;;;13.40;99.90;;;;;;5023621;28;20182;-88
2022/11/17 12:24:06;;;;;;;4.93;1.40;;;13.40;99.90;;;;;;5019119;28;20333;-87
2022/11/17 12:26:34;;;;;;;11.80;2.40;;;13.50;99.90;;;;;;5019143;28;20179;-87
2022/11/17 12:29:30;;;;;;;8.23;1.60;;;13.60;99.90;;;;;;5019190;28;20182;-88
2022/11/17 12:32:01;;;;;;;8.83;1.63;;;13.70;99.90;;;;;;5016293;28;20222;-88
2022/11/17 12:34:31;;;;;;;7.27;1.90;;;13.70;99.90;;;;;;5033806;28;20202;-88
2022/11/17 12:37:19;;;;;;;7.10;1.83;;;13.80;99.90;;;;;;5034194;28;20204;-87
2022/11/17 12:40:00;;;;;;;9.10;2.33;;;13.90;99.90;;;;;;5017578;28;20178;-88
2022/11/17 12:42:33;;;;;;;13.10;2.67;;;13.80;99.90;;;;;;5018851;28;20201;-88
2022/11/17 12:45:01;;;;;;;11.40;1.87;;;13.80;99.90;;;;;;5018506;28;20240;-88
2022/11/17 12:47:36;;;;;;;8.83;1.50;;;13.80;99.90;;;;;;5018229;28;20190;-87
2022/11/17 12:50:08;;;;;;;5.40;1.67;;;13.70;99.90;;;;;;5018813;28;20216;-88
2022/11/17 12:52:56;;;;;;;6.50;1.70;;;13.80;99.90;;;;;;5018426;28;20206;-88
2022/11/17 12:55:28;;;;;;;8.63;1.77;;;13.80;99.90;;;;;;5035037;28;20228;-88
2022/11/17 12:58:32;;;;;;;12.40;2.33;;;13.90;99.90;;;;;;4998685;28;20188;-87
2022/11/17 13:01:28;;;;;;;9.70;2.17;;;14.00;99.90;;;;;;4998604;28;20191;-88
2022/11/17 13:04:25;;;;;;;8.70;1.90;;;14.10;99.90;;;;;;5010579;28;20229;-88
2022/11/17 13:07:06;;;;;;;7.27;1.93;;;14.20;99.90;;;;;;5014694;28;20380;-87
2022/11/17 13:09:35;;;;;;;7.87;1.90;;;14.30;99.90;;;;;;4998211;28;20210;-87
2022/11/17 13:12:06;;;;;;;5.77;1.57;;;14.30;99.90;;;;;;5017702;28;20210;-88
2022/11/17 13:14:54;;;;;;;10.07;1.70;;;14.20;99.90;;;;;;5017402;28;20210;-88
2022/11/17 13:17:42;;;;;;;9.77;1.70;;;14.10;99.90;;;;;;5009428;28;20182;-88
2022/11/17 13:20:24;;;;;;;9.67;1.80;;;14.00;99.90;;;;;;5004520;28;20178;-87
2022/11/17 13:23:05;;;;;;;7.27;1.70;;;13.80;99.90;;;;;;5017443;28;20179;-88
2022/11/17 13:25:32;;;;;;;8.97;2.30;;;13.70;99.90;;;;;;5017563;28;20211;-87
2022/11/17 13:27:58;;;;;;;9.27;2.30;;;13.60;99.90;;;;;;5015794;28;20714;-88
2022/11/17 13:30:26;;;;;;;6.40;1.80;;;13.60;99.90;;;;;;5008872;28;20183;-87
2022/11/17 13:32:54;;;;;;;7.70;1.93;;;13.70;99.90;;;;;;5018130;28;20171;-88
2022/11/17 13:35:24;;;;;;;10.43;2.30;;;13.70;99.90;;;;;;5017187;28;20206;-88
2022/11/17 13:38:31;;;;;;;10.67;2.00;;;13.70;99.90;;;;;;5033619;28;20167;-87
2022/11/17 13:40:58;;;;;;;7.27;2.03;;;13.70;99.90;;;;;;5037068;28;20256;-87
2022/11/17 13:43:26;;;;;;;7.93;2.37;;;13.70;99.90;;;;;;5011543;28;20175;-87
2022/11/17 13:45:53;;;;;;;8.80;2.03;;;13.60;99.90;;;;;;5015951;28;20198;-87